createdAt,value
2019-02-25T00:02:27.797Z,46.70
2019-02-25T00:05:13.094Z,44.93
2019-02-25T00:07:58.373Z,45.40
2019-02-25T00:10:43.537Z,44.60
2019-02-25T00:13:30.307Z,43.20
2019-02-25T00:16:15.397Z,49.77
2019-02-25T00:19:01.055Z,44.97
2019-02-25T00:21:46.428Z,45.43
2019-02-25T00:24:31.799Z,43.10
2019-02-25T00:27:17.238Z,45.23
2019-02-25T00:30:08.166Z,48.67
2019-02-25T00:32:53.408Z,49.23
2019-02-25T00:35:38.402Z,59.60
2019-02-25T00:38:23.710Z,52.30
2019-02-25T00:41:09.162Z,46.60
2019-02-25T00:43:55.910Z,45.97
2019-02-25T00:46:41.332Z,42.33
2019-02-25T00:49:26.484Z,49.83
2019-02-25T00:52:11.646Z,48.20
2019-02-25T00:54:56.791Z,45.20
2019-02-25T00:57:41.921Z,53.53
2019-02-25T01:00:27.527Z,48.97
2019-02-25T01:03:12.707Z,44.80
2019-02-25T01:05:57.901Z,46.23
2019-02-25T01:08:42.660Z,46.90
2019-02-25T01:11:27.405Z,43.77
2019-02-25T01:14:12.905Z,46.60
2019-02-25T01:16:58.061Z,46.33
2019-02-25T01:19:43.415Z,52.93
2019-02-25T01:22:28.681Z,48.97
2019-02-25T01:25:16.230Z,50.37
2019-02-25T01:28:01.770Z,47.97
2019-02-25T01:30:48.249Z,52.17
2019-02-25T01:33:33.380Z,46.23
2019-02-25T01:36:18.864Z,44.57
2019-02-25T01:39:04.820Z,42.50
2019-02-25T01:41:50.344Z,46.27
2019-02-25T01:44:35.622Z,59.83
2019-02-25T01:47:20.935Z,46.40
2019-02-25T01:50:10.782Z,46.37
2019-02-25T01:52:56.217Z,45.30
2019-02-25T01:55:41.337Z,52.30
2019-02-25T01:58:26.433Z,40.47
2019-02-25T02:01:11.551Z,48.13
2019-02-25T02:03:57.939Z,49.13
2019-02-25T02:06:43.115Z,46.80
2019-02-25T02:09:28.267Z,54.47
2019-02-25T02:12:13.647Z,44.80
2019-02-25T02:14:58.959Z,48.97
2019-02-25T02:17:44.228Z,47.40
2019-02-25T02:20:29.227Z,51.97
2019-02-25T02:23:14.964Z,50.60
2019-02-25T02:26:00.302Z,43.37
2019-02-25T02:28:45.576Z,46.83
2019-02-25T02:31:30.538Z,46.00
2019-02-25T02:34:15.674Z,51.10
2019-02-25T02:37:01.051Z,46.47
2019-02-25T02:39:46.448Z,47.20
2019-02-25T02:42:32.061Z,47.73
2019-02-25T02:45:26.913Z,47.43
2019-02-25T02:48:28.670Z,44.83
2019-02-25T02:51:15.006Z,51.30
2019-02-25T02:54:00.590Z,48.00
2019-02-25T02:56:45.473Z,55.33
2019-02-25T02:59:31.153Z,51.87
2019-02-25T03:02:16.531Z,47.63
2019-02-25T03:05:02.687Z,50.83
2019-02-25T03:07:47.857Z,74.07
2019-02-25T03:10:33.224Z,61.77
2019-02-25T03:13:18.236Z,49.40
2019-02-25T03:16:03.953Z,49.77
2019-02-25T03:18:48.777Z,50.27
2019-02-25T03:21:34.087Z,51.10
2019-02-25T03:24:19.427Z,50.33
2019-02-25T03:27:04.602Z,50.07
2019-02-25T03:29:49.306Z,49.93
2019-02-25T03:32:34.321Z,50.93
2019-02-25T03:35:19.563Z,49.30
2019-02-25T03:38:04.863Z,52.70
2019-02-25T03:40:49.924Z,57.07
2019-02-25T03:43:35.236Z,50.87
2019-02-25T03:46:20.515Z,54.70
2019-02-25T03:49:06.489Z,53.13
2019-02-25T03:51:51.651Z,50.87
2019-02-25T03:54:36.719Z,54.90
2019-02-25T03:57:22.669Z,52.40
2019-02-25T04:00:14.812Z,52.43
2019-02-25T04:03:00.119Z,50.03
2019-02-25T04:05:45.621Z,57.47
2019-02-25T04:08:30.711Z,58.07
2019-02-25T04:11:15.767Z,52.37
2019-02-25T04:14:01.650Z,52.50
2019-02-25T04:16:47.137Z,52.93
2019-02-25T04:19:32.076Z,51.10
2019-02-25T04:22:16.991Z,58.07
2019-02-25T04:25:02.759Z,60.13
2019-02-25T04:27:48.169Z,60.80
2019-02-25T04:30:33.246Z,68.70
2019-02-25T04:33:18.324Z,69.17
2019-02-25T04:36:03.552Z,71.87
2019-02-25T04:38:49.289Z,78.67
2019-02-25T04:41:34.258Z,71.90
2019-02-25T04:44:21.093Z,74.87
2019-02-25T04:47:06.150Z,74.87
2019-02-25T04:49:51.443Z,88.20
2019-02-25T04:52:37.202Z,94.43
2019-02-25T04:55:22.082Z,92.20
2019-02-25T04:58:07.333Z,96.60
2019-02-25T05:00:52.319Z,101.57
2019-02-25T05:03:38.662Z,113.13
2019-02-25T05:06:23.979Z,113.60
2019-02-25T05:09:09.171Z,110.30
2019-02-25T05:11:55.040Z,120.77
2019-02-25T05:14:39.998Z,120.50
2019-02-25T05:17:25.476Z,131.63
2019-02-25T05:20:10.686Z,148.73
2019-02-25T05:22:57.874Z,181.37
2019-02-25T05:25:42.560Z,176.43
2019-02-25T05:28:29.469Z,153.13
2019-02-25T05:31:14.519Z,165.10
2019-02-25T05:33:59.605Z,158.60
2019-02-25T05:36:44.852Z,164.47
2019-02-25T05:39:30.280Z,184.77
2019-02-25T05:42:15.535Z,178.77
2019-02-25T05:45:00.936Z,188.93
2019-02-25T05:47:45.925Z,180.17
2019-02-25T05:50:31.107Z,175.97
2019-02-25T05:53:16.434Z,197.67
2019-02-25T05:56:01.667Z,187.27
2019-02-25T05:58:47.031Z,166.10
2019-02-25T06:01:32.035Z,184.73
2019-02-25T06:04:17.837Z,196.97
2019-02-25T06:07:03.363Z,205.47
2019-02-25T06:09:48.598Z,211.63
2019-02-25T06:12:33.861Z,209.87
2019-02-25T06:15:19.664Z,214.23
2019-02-25T06:18:04.402Z,201.80
2019-02-25T06:20:49.752Z,196.50
2019-02-25T06:23:34.846Z,215.60
2019-02-25T06:26:20.403Z,204.27
2019-02-25T06:29:05.485Z,204.57
2019-02-25T06:31:50.964Z,191.27
2019-02-25T06:34:35.973Z,210.13
2019-02-25T06:37:21.249Z,203.13
2019-02-25T06:40:18.344Z,205.03
2019-02-25T06:43:03.581Z,212.07
2019-02-25T06:45:48.802Z,192.17
2019-02-25T06:48:33.960Z,200.87
2019-02-25T06:51:19.495Z,191.53
2019-02-25T06:54:04.724Z,190.33
2019-02-25T06:56:50.058Z,188.93
2019-02-25T06:59:35.091Z,183.57
2019-02-25T07:02:20.180Z,175.30
2019-02-25T07:05:12.020Z,177.80
2019-02-25T07:07:59.329Z,173.93
2019-02-25T07:10:52.389Z,181.33
2019-02-25T07:13:48.381Z,155.67
2019-02-25T07:16:38.081Z,167.67
2019-02-25T07:19:28.392Z,160.17
2019-02-25T07:22:15.669Z,174.43
2019-02-25T07:25:05.134Z,159.40
2019-02-25T07:28:06.732Z,168.80
2019-02-25T07:30:53.917Z,176.23
2019-02-25T07:33:41.242Z,165.00
2019-02-25T07:36:28.696Z,169.70
2019-02-25T07:39:21.478Z,180.77
2019-02-25T07:42:17.443Z,175.73
2019-02-25T07:45:09.995Z,171.67
2019-02-25T07:47:57.398Z,165.33
2019-02-25T07:50:50.273Z,184.60
2019-02-25T07:53:46.566Z,182.40
2019-02-25T07:56:36.095Z,164.17
2019-02-25T07:59:34.866Z,181.23
2019-02-25T08:02:24.843Z,179.93
2019-02-25T08:05:11.895Z,186.10
2019-02-25T08:08:01.296Z,176.73
2019-02-25T08:10:57.290Z,176.70
2019-02-25T08:13:50.246Z,183.87
2019-02-25T08:16:49.127Z,175.07
2019-02-25T08:19:48.058Z,167.10
2019-02-25T08:22:53.147Z,152.73
2019-02-25T08:25:45.690Z,156.03
2019-02-25T08:28:39.468Z,146.60
2019-02-25T08:31:41.773Z,150.63
2019-02-25T08:34:45.555Z,156.27
2019-02-25T08:37:55.734Z,158.53
2019-02-25T08:40:46.430Z,163.70
2019-02-25T08:43:36.305Z,155.23
2019-02-25T08:46:23.634Z,167.40
2019-02-25T08:49:13.744Z,144.00
2019-02-25T08:52:01.056Z,149.00
2019-02-25T08:54:46.759Z,139.93
2019-02-25T08:57:32.066Z,144.23
2019-02-25T09:00:17.411Z,157.17
2019-02-25T09:03:03.315Z,154.93
2019-02-25T09:05:48.437Z,148.37
2019-02-25T09:08:34.493Z,140.93
2019-02-25T09:11:19.599Z,146.87
2019-02-25T09:14:04.621Z,151.53
2019-02-25T09:16:50.648Z,160.47
2019-02-25T09:19:35.762Z,163.37
2019-02-25T09:22:20.992Z,144.40
2019-02-25T09:25:09.492Z,149.13
2019-02-25T09:27:55.108Z,139.23
2019-02-25T09:30:39.672Z,138.90
2019-02-25T09:33:25.378Z,136.80
2019-02-25T09:36:11.371Z,145.73
2019-02-25T09:38:56.961Z,139.47
2019-02-25T09:41:43.952Z,140.50
2019-02-25T09:44:29.789Z,141.33
2019-02-25T09:47:14.988Z,132.73
2019-02-25T09:50:00.570Z,133.83
2019-02-25T09:52:45.547Z,143.10
2019-02-25T09:55:31.121Z,136.20
2019-02-25T09:58:16.743Z,150.50
2019-02-25T10:01:01.701Z,148.47
2019-02-25T10:03:47.279Z,134.83
2019-02-25T10:06:33.527Z,127.60
2019-02-25T10:09:18.864Z,141.17
2019-02-25T10:12:04.316Z,124.23
2019-02-25T10:14:49.658Z,127.53
2019-02-25T10:17:35.233Z,124.43
2019-02-25T10:20:20.764Z,130.40
2019-02-25T10:23:05.746Z,129.63
2019-02-25T10:25:50.659Z,132.43
2019-02-25T10:28:35.734Z,126.77
2019-02-25T10:31:21.030Z,142.00
2019-02-25T10:34:07.678Z,127.17
2019-02-25T10:36:53.264Z,122.47
2019-02-25T10:39:38.450Z,119.97
2019-02-25T10:42:25.034Z,125.77
2019-02-25T10:45:16.838Z,122.70
2019-02-25T10:48:02.071Z,124.53
2019-02-25T10:50:55.755Z,117.83
2019-02-25T10:53:34.026Z,116.13
2019-02-25T10:56:26.033Z,113.13
2019-02-25T10:59:10.675Z,114.47
2019-02-25T11:01:55.639Z,113.17
2019-02-25T11:04:40.357Z,113.77
2019-02-25T11:07:25.267Z,118.20
2019-02-25T11:10:18.703Z,108.90
2019-02-25T11:13:04.856Z,113.83
2019-02-25T11:15:49.934Z,112.40
2019-02-25T11:18:35.154Z,109.90
2019-02-25T11:21:20.117Z,114.20
2019-02-25T11:24:05.426Z,112.40
2019-02-25T11:26:51.608Z,109.10
2019-02-25T11:29:38.386Z,109.70
2019-02-25T11:32:24.423Z,99.17
2019-02-25T11:35:13.031Z,95.23
2019-02-25T11:37:59.804Z,98.23
2019-02-25T11:40:44.832Z,100.73
2019-02-25T11:43:30.228Z,95.57
2019-02-25T11:46:15.318Z,91.63
2019-02-25T11:49:00.169Z,105.80
2019-02-25T11:51:46.011Z,97.53
2019-02-25T11:54:31.319Z,106.87
2019-02-25T11:57:16.381Z,90.60
2019-02-25T12:00:02.139Z,90.13
2019-02-25T12:02:47.835Z,80.47
2019-02-25T12:05:32.764Z,81.93
2019-02-25T12:08:18.010Z,87.13
2019-02-25T12:11:04.912Z,86.53
2019-02-25T12:13:50.040Z,89.03
2019-02-25T12:16:36.053Z,90.50
2019-02-25T12:19:21.339Z,81.90
2019-02-25T12:22:06.640Z,83.30
2019-02-25T12:24:51.788Z,82.50
2019-02-25T12:27:37.583Z,68.80
2019-02-25T12:30:24.896Z,77.20
2019-02-25T12:33:09.772Z,65.47
2019-02-25T12:35:56.110Z,65.37
2019-02-25T12:38:41.302Z,49.93
2019-02-25T12:41:27.374Z,53.10
2019-02-25T12:44:12.742Z,55.90
2019-02-25T12:46:58.086Z,50.90
2019-02-25T12:49:43.139Z,48.37
2019-02-25T12:52:27.724Z,55.63
2019-02-25T12:55:15.536Z,55.93
2019-02-25T12:58:01.311Z,54.57
2019-02-25T13:00:47.477Z,59.87
2019-02-25T13:03:36.135Z,55.73
2019-02-25T13:06:21.175Z,65.37
2019-02-25T13:09:09.912Z,65.63
2019-02-25T13:11:55.041Z,65.63
2019-02-25T13:14:40.283Z,67.03
2019-02-25T13:17:25.351Z,63.20
2019-02-25T13:20:12.237Z,60.93
2019-02-25T13:22:56.982Z,58.83
2019-02-25T13:25:41.882Z,57.60
2019-02-25T13:28:28.666Z,60.07
2019-02-25T13:31:14.244Z,58.87
2019-02-25T13:33:59.279Z,49.30
2019-02-25T13:36:45.470Z,58.43
2019-02-25T13:39:30.231Z,52.20
2019-02-25T13:42:15.635Z,57.13
2019-02-25T13:45:03.168Z,49.63
2019-02-25T13:47:48.458Z,52.40
2019-02-25T13:50:33.744Z,44.40
2019-02-25T13:53:21.046Z,56.73
2019-02-25T13:56:05.995Z,45.40
2019-02-25T13:58:51.215Z,45.67
2019-02-25T14:01:36.155Z,43.63
2019-02-25T14:04:22.366Z,47.87
2019-02-25T14:07:08.657Z,44.57
2019-02-25T14:09:54.160Z,47.03
2019-02-25T14:12:39.271Z,43.17
2019-02-25T14:15:24.707Z,39.87
2019-02-25T14:18:10.572Z,44.10
2019-02-25T14:20:56.103Z,46.53
2019-02-25T14:23:41.871Z,47.00
2019-02-25T14:26:26.751Z,43.20
2019-02-25T14:29:11.972Z,40.23
2019-02-25T14:31:57.315Z,38.30
2019-02-25T14:34:46.006Z,38.90
2019-02-25T14:37:30.577Z,42.10
2019-02-25T14:40:19.234Z,46.23
2019-02-25T14:43:05.945Z,45.70
2019-02-25T14:45:53.928Z,45.40
2019-02-25T14:48:38.474Z,40.20
2019-02-25T14:51:23.377Z,45.47
2019-02-25T14:54:08.648Z,42.77
2019-02-25T14:56:54.850Z,41.03
2019-02-25T14:59:41.087Z,42.63
2019-02-25T15:02:26.716Z,38.63
2019-02-25T15:05:13.061Z,36.93
2019-02-25T15:07:59.144Z,41.17
2019-02-25T15:10:43.957Z,42.80
2019-02-25T15:13:30.348Z,48.90
2019-02-25T15:16:16.113Z,34.87
2019-02-25T15:19:01.673Z,37.07
2019-02-25T15:21:47.518Z,40.57
2019-02-25T15:24:34.259Z,36.10
2019-02-25T15:27:19.849Z,39.00
2019-02-25T15:30:20.681Z,38.63
2019-02-25T15:33:05.023Z,44.93
2019-02-25T15:35:50.137Z,59.87
2019-02-25T15:38:37.063Z,49.27
2019-02-25T15:41:22.319Z,62.67
2019-02-25T15:44:08.997Z,59.37
2019-02-25T15:46:54.545Z,65.30
2019-02-25T15:49:39.824Z,63.20
2019-02-25T15:52:27.579Z,55.47
2019-02-25T15:55:16.925Z,65.33
2019-02-25T15:58:02.094Z,65.10
2019-02-25T16:00:47.926Z,76.70
2019-02-25T16:03:35.050Z,85.13
2019-02-25T16:06:20.496Z,86.67
2019-02-25T16:09:06.644Z,71.50
2019-02-25T16:11:52.818Z,71.13
2019-02-25T16:14:38.962Z,68.63
2019-02-25T16:17:25.322Z,64.37
2019-02-25T16:20:12.187Z,67.00
2019-02-25T16:23:00.476Z,57.47
2019-02-25T16:25:46.215Z,58.50
2019-02-25T16:28:34.022Z,61.33
2019-02-25T16:31:19.181Z,72.00
2019-02-25T16:34:04.355Z,59.53
2019-02-25T16:36:51.747Z,67.63
2019-02-25T16:39:36.972Z,73.50
2019-02-25T16:42:25.969Z,68.27
2019-02-25T16:45:28.508Z,66.57
2019-02-25T16:48:12.410Z,80.80
2019-02-25T16:51:00.164Z,70.03
2019-02-25T16:53:49.928Z,69.77
2019-02-25T16:56:31.603Z,60.93
2019-02-25T16:59:18.516Z,71.20
2019-02-25T17:02:06.610Z,67.93
2019-02-25T17:04:51.501Z,81.90
2019-02-25T17:07:38.357Z,79.73
2019-02-25T17:10:26.609Z,68.60
2019-02-25T17:13:14.297Z,54.10
2019-02-25T17:15:57.882Z,52.17
2019-02-25T17:18:46.084Z,56.50
2019-02-25T17:21:31.025Z,48.50
2019-02-25T17:24:17.475Z,144.77
2019-02-25T17:27:06.982Z,52.40
2019-02-25T17:29:52.928Z,50.27
2019-02-25T17:32:38.355Z,46.87
2019-02-25T17:35:26.644Z,47.70
2019-02-25T17:38:12.339Z,44.77
2019-02-25T17:40:59.182Z,44.00
2019-02-25T17:43:44.503Z,49.50
2019-02-25T17:46:32.578Z,50.37
2019-02-25T17:49:18.995Z,46.80
2019-02-25T17:52:04.883Z,39.13
2019-02-25T17:54:50.155Z,38.43
2019-02-25T17:57:37.404Z,40.30
2019-02-25T18:00:26.687Z,34.07
2019-02-25T18:03:12.346Z,39.23
2019-02-25T18:05:58.985Z,36.27
2019-02-25T18:08:45.580Z,38.73
2019-02-25T18:11:31.142Z,40.33
2019-02-25T18:14:19.899Z,39.37
2019-02-25T18:17:06.139Z,37.83
2019-02-25T18:19:54.575Z,35.77
2019-02-25T18:22:40.051Z,39.20
2019-02-25T18:25:25.855Z,36.00
2019-02-25T18:28:13.599Z,44.57
2019-02-25T18:31:01.736Z,44.80
2019-02-25T18:33:48.431Z,46.03
2019-02-25T18:36:35.422Z,48.93
2019-02-25T18:39:23.091Z,47.57
2019-02-25T18:42:09.610Z,43.83
2019-02-25T18:44:55.435Z,44.33
2019-02-25T18:47:40.708Z,45.03
2019-02-25T18:50:28.558Z,65.73
2019-02-25T18:53:16.119Z,53.53
2019-02-25T18:56:02.137Z,51.60
2019-02-25T18:58:47.341Z,61.77
2019-02-25T19:01:33.772Z,101.33
2019-02-25T19:04:19.747Z,153.80
2019-02-25T19:07:07.913Z,82.90
2019-02-25T19:09:53.939Z,72.07
2019-02-25T19:12:40.274Z,74.20
2019-02-25T19:15:26.216Z,79.57
2019-02-25T19:18:13.260Z,77.57
2019-02-25T19:20:59.769Z,73.03
2019-02-25T19:23:46.471Z,64.93
2019-02-25T19:26:32.646Z,68.67
2019-02-25T19:29:19.468Z,76.47
2019-02-25T19:32:04.502Z,69.03
2019-02-25T19:34:51.830Z,68.77
2019-02-25T19:37:38.184Z,66.63
2019-02-25T19:40:24.640Z,68.03
2019-02-25T19:43:10.451Z,66.53
2019-02-25T19:45:57.167Z,61.57
2019-02-25T19:48:42.737Z,112.80
2019-02-25T19:51:29.792Z,62.80
2019-02-25T19:54:16.803Z,59.40
2019-02-25T19:57:01.786Z,54.40
2019-02-25T19:59:50.256Z,63.40
2019-02-25T20:02:34.751Z,58.37
2019-02-25T20:05:24.014Z,66.33
2019-02-25T20:08:08.884Z,61.10
2019-02-25T20:10:54.868Z,75.87
2019-02-25T20:13:40.580Z,87.10
2019-02-25T20:16:29.787Z,87.63
2019-02-25T20:19:13.936Z,102.50
2019-02-25T20:21:59.314Z,84.77
2019-02-25T20:24:46.078Z,59.10
2019-02-25T20:27:31.241Z,66.80
2019-02-25T20:30:19.167Z,112.73
2019-02-25T20:33:06.952Z,61.87
2019-02-25T20:35:53.537Z,60.17
2019-02-25T20:38:39.699Z,67.27
2019-02-25T20:41:26.607Z,51.30
2019-02-25T20:44:12.151Z,47.13
2019-02-25T20:46:59.577Z,44.30
2019-02-25T20:49:47.372Z,52.03
2019-02-25T20:52:31.374Z,53.77
2019-02-25T20:55:17.439Z,58.47
2019-02-25T20:58:04.410Z,52.40
2019-02-25T21:00:50.913Z,55.03
2019-02-25T21:03:36.175Z,90.87
2019-02-25T21:06:21.450Z,48.17
2019-02-25T21:09:09.285Z,48.67
2019-02-25T21:11:54.510Z,42.93
2019-02-25T21:14:41.121Z,46.37
2019-02-25T21:17:28.446Z,49.50
2019-02-25T21:20:15.415Z,45.63
2019-02-25T21:23:05.010Z,44.07
2019-02-25T21:25:48.209Z,42.20
2019-02-25T21:28:33.687Z,52.77
2019-02-25T21:31:21.389Z,58.37
2019-02-25T21:34:06.820Z,51.50
2019-02-25T21:36:53.646Z,48.27
2019-02-25T21:39:40.711Z,48.03
2019-02-25T21:42:26.845Z,54.50
2019-02-25T21:45:16.034Z,51.27
2019-02-25T21:48:04.694Z,53.63
2019-02-25T21:50:49.239Z,54.47
2019-02-25T21:53:34.248Z,52.77
2019-02-25T21:56:20.583Z,53.30
2019-02-25T21:59:08.414Z,51.63
2019-02-25T22:01:57.247Z,53.87
2019-02-25T22:04:45.378Z,50.77
2019-02-25T22:07:54.365Z,55.27
2019-02-25T22:10:39.365Z,47.20
2019-02-25T22:13:24.187Z,51.63
2019-02-25T22:16:14.201Z,55.93
2019-02-25T22:18:59.354Z,55.53
2019-02-25T22:21:44.615Z,57.63
2019-02-25T22:24:32.050Z,55.97
2019-02-25T22:27:18.550Z,108.77
2019-02-25T22:30:15.328Z,47.67
2019-02-25T22:33:02.552Z,54.27
2019-02-25T22:35:49.413Z,54.73
2019-02-25T22:38:34.702Z,55.70
2019-02-25T22:41:20.567Z,53.13
2019-02-25T22:44:08.542Z,57.93
2019-02-25T22:46:53.558Z,52.83
2019-02-25T22:49:38.597Z,55.27
2019-02-25T22:52:26.274Z,46.87
2019-02-25T22:55:17.372Z,58.47
2019-02-25T22:58:03.225Z,70.50
2019-02-25T23:00:51.154Z,62.87
2019-02-25T23:03:40.983Z,51.70
2019-02-25T23:06:25.354Z,50.37
2019-02-25T23:09:14.151Z,45.90
2019-02-25T23:11:58.721Z,50.10
2019-02-25T23:14:44.085Z,56.70
2019-02-25T23:17:31.181Z,55.17
2019-02-25T23:20:16.083Z,65.90
2019-02-25T23:23:04.834Z,60.30
2019-02-25T23:25:49.205Z,77.60
2019-02-25T23:28:37.126Z,74.73
2019-02-25T23:31:22.293Z,51.50
2019-02-25T23:34:10.046Z,47.73
2019-02-25T23:36:56.115Z,55.83
2019-02-25T23:39:42.687Z,57.77
2019-02-25T23:42:28.005Z,53.90
2019-02-25T23:45:17.442Z,43.47
2019-02-25T23:48:01.910Z,48.47
2019-02-25T23:50:50.192Z,69.37
2019-02-25T23:53:35.251Z,69.53
2019-02-25T23:56:22.706Z,68.40
2019-02-25T23:59:10.719Z,52.43
